Portada
METAR-TAF:

METAR-TAF

Aeroports :

Macaé, Rio de Janeiro, Brasil

latitud: 22-21S, longitud: 041-46W, altitud: 2 m

Observació

L'informe es va fer fa 30 minuts, a les 17:00 UTC
Vent 7 kt del Sud
Temperatura 25°C
Humitat 69%
Pressió 1012 hPa
Visibilitat 10 km o més
Núvols disperses a una alçada de 2500 ft
Cel ennuvolat a una alçada de 8000 ft

METAR: SBME 171700Z 17007KT 9999 SCT025 BKN080 25/19 Q1012

Hora: 15:30 (17:30 UTC)

Pronòstic

L'informe es va fer fa 8 hores i 0 minuts, a les 09:30 UTC
Pronòstic vàlid del 17 a les 12 UTC al 17 a les 24 UTC
Vent 5 kt del Sud/Sud-Oest
Visibilitat 10 km o més
Evolucionant progressivament
l' 17 a les 13 UTC al 17 a les 15 UTC
Vent 10 kt del Sud/Sud-Est
Evolucionant progressivament
l' 17 a les 22 UTC al 17 a les 24 UTC
Vent 5 kt del Nord-Est

TAF: SBME 170930Z 1712/1724 21005KT 9999 SCT020TX27/1715Z TN22/1724Z BECMG 1713/1715 15010KT BECMG 1722/1724 04005KT RMK PHI

Observacions i pronòstics meteorològics de més de 4000 aeroports (METAR i TAF).

Les estacions disponibles són els punts grocs i vermells al mapa.

Posi el ratolí al punt desitjat per veure el nom de l'estació.

Feu clic per veure les observacions i els pronòstics meteorològics.

Per canviar el mapa: feu clic els botons verds amb una creu de color negre per apropar; al botó verd amb un guió per allunyar la imatge; o en les fletxes verdes per a mapes adjacents.


METAR-TAF: